sensor_id;sensor_type;location;lat;lon;timestamp;temperature;humidity
7129;DHT22;3606;52.930;8.644;2023-04-24T00:00:24;11.00;99.90
7129;DHT22;3606;52.930;8.644;2023-04-24T00:02:49;10.90;99.90
7129;DHT22;3606;52.930;8.644;2023-04-24T00:05:16;10.90;99.90
7129;DHT22;3606;52.930;8.644;2023-04-24T00:07:44;10.80;99.90
7129;DHT22;3606;52.930;8.644;2023-04-24T00:10:11;10.80;99.90
7129;DHT22;3606;52.930;8.644;2023-04-24T00:12:37;10.80;99.90
7129;DHT22;3606;52.930;8.644;2023-04-24T00:15:03;10.90;99.90
7129;DHT22;3606;52.930;8.644;2023-04-24T00:17:29;10.80;99.90
7129;DHT22;3606;52.930;8.644;2023-04-24T00:19:55;10.80;99.90
7129;DHT22;3606;52.930;8.644;2023-04-24T00:22:25;10.80;99.90
7129;DHT22;3606;52.930;8.644;2023-04-24T00:24:50;10.70;99.90
7129;DHT22;3606;52.930;8.644;2023-04-24T00:27:16;10.70;99.90
7129;DHT22;3606;52.930;8.644;2023-04-24T00:29:41;10.60;99.90
7129;DHT22;3606;52.930;8.644;2023-04-24T00:32:07;10.50;99.90
7129;DHT22;3606;52.930;8.644;2023-04-24T00:34:33;10.50;99.90
7129;DHT22;3606;52.930;8.644;2023-04-24T00:36:58;10.50;99.90
7129;DHT22;3606;52.930;8.644;2023-04-24T00:39:24;10.40;99.90
7129;DHT22;3606;52.930;8.644;2023-04-24T00:41:50;10.40;99.90
7129;DHT22;3606;52.930;8.644;2023-04-24T00:44:16;10.30;99.90
7129;DHT22;3606;52.930;8.644;2023-04-24T00:46:42;10.20;99.90
7129;DHT22;3606;52.930;8.644;2023-04-24T00:49:08;10.20;99.90
7129;DHT22;3606;52.930;8.644;2023-04-24T00:51:33;10.30;99.90
7129;DHT22;3606;52.930;8.644;2023-04-24T00:54:00;10.30;99.90
7129;DHT22;3606;52.930;8.644;2023-04-24T00:56:26;10.40;99.90
7129;DHT22;3606;52.930;8.644;2023-04-24T00:58:52;10.30;99.90
7129;DHT22;3606;52.930;8.644;2023-04-24T01:01:20;10.30;99.90
7129;DHT22;3606;52.930;8.644;2023-04-24T01:03:47;10.40;99.90
7129;DHT22;3606;52.930;8.644;2023-04-24T01:06:14;10.40;99.90
7129;DHT22;3606;52.930;8.644;2023-04-24T01:08:41;10.40;99.90
7129;DHT22;3606;52.930;8.644;2023-04-24T01:11:07;10.40;99.90
7129;DHT22;3606;52.930;8.644;2023-04-24T01:13:33;10.40;99.90
7129;DHT22;3606;52.930;8.644;2023-04-24T01:15:59;10.40;99.90
7129;DHT22;3606;52.930;8.644;2023-04-24T01:18:25;10.50;99.90
7129;DHT22;3606;52.930;8.644;2023-04-24T01:20:53;10.50;99.90
7129;DHT22;3606;52.930;8.644;2023-04-24T01:23:20;10.50;99.90
7129;DHT22;3606;52.930;8.644;2023-04-24T01:25:45;10.50;99.90
7129;DHT22;3606;52.930;8.644;2023-04-24T01:28:11;10.60;99.90
7129;DHT22;3606;52.930;8.644;2023-04-24T01:30:37;10.60;99.90
7129;DHT22;3606;52.930;8.644;2023-04-24T01:33:04;10.50;99.90
7129;DHT22;3606;52.930;8.644;2023-04-24T01:35:29;10.50;99.90
7129;DHT22;3606;52.930;8.644;2023-04-24T01:37:55;10.40;99.90
7129;DHT22;3606;52.930;8.644;2023-04-24T01:40:21;10.40;99.90
7129;DHT22;3606;52.930;8.644;2023-04-24T01:42:47;10.40;99.90
7129;DHT22;3606;52.930;8.644;2023-04-24T01:45:12;10.40;99.90
7129;DHT22;3606;52.930;8.644;2023-04-24T01:47:38;10.30;99.90
7129;DHT22;3606;52.930;8.644;2023-04-24T01:50:05;10.40;99.90
7129;DHT22;3606;52.930;8.644;2023-04-24T01:52:30;10.50;99.90
7129;DHT22;3606;52.930;8.644;2023-04-24T01:54:59;10.50;99.90
7129;DHT22;3606;52.930;8.644;2023-04-24T01:57:25;10.50;99.90
7129;DHT22;3606;52.930;8.644;2023-04-24T01:59:51;10.60;99.90
7129;DHT22;3606;52.930;8.644;2023-04-24T02:02:17;10.60;99.90
7129;DHT22;3606;52.930;8.644;2023-04-24T02:04:42;10.70;99.90
7129;DHT22;3606;52.930;8.644;2023-04-24T02:07:08;10.70;99.90
7129;DHT22;3606;52.930;8.644;2023-04-24T02:09:33;10.70;99.90
7129;DHT22;3606;52.930;8.644;2023-04-24T02:11:59;10.70;99.90
7129;DHT22;3606;52.930;8.644;2023-04-24T02:14:25;10.60;99.90
7129;DHT22;3606;52.930;8.644;2023-04-24T02:16:51;10.50;99.90
7129;DHT22;3606;52.930;8.644;2023-04-24T02:19:17;10.30;99.90
7129;DHT22;3606;52.930;8.644;2023-04-24T02:21:42;10.30;99.90
7129;DHT22;3606;52.930;8.644;2023-04-24T02:24:08;10.20;99.90
7129;DHT22;3606;52.930;8.644;2023-04-24T02:26:33;10.30;99.90
7129;DHT22;3606;52.930;8.644;2023-04-24T02:28:59;10.30;99.90
7129;DHT22;3606;52.930;8.644;2023-04-24T02:31:25;10.30;99.90
7129;DHT22;3606;52.930;8.644;2023-04-24T02:33:51;10.30;99.90
7129;DHT22;3606;52.930;8.644;2023-04-24T02:36:16;10.30;99.90
7129;DHT22;3606;52.930;8.644;2023-04-24T02:38:42;10.20;99.90
7129;DHT22;3606;52.930;8.644;2023-04-24T02:41:07;10.20;99.90
7129;DHT22;3606;52.930;8.644;2023-04-24T02:43:33;10.20;99.90
7129;DHT22;3606;52.930;8.644;2023-04-24T02:45:59;10.30;99.90
7129;DHT22;3606;52.930;8.644;2023-04-24T02:48:25;10.20;99.90
7129;DHT22;3606;52.930;8.644;2023-04-24T02:50:50;10.30;99.90
7129;DHT22;3606;52.930;8.644;2023-04-24T02:53:16;10.20;99.90
7129;DHT22;3606;52.930;8.644;2023-04-24T02:55:42;10.20;99.90
7129;DHT22;3606;52.930;8.644;2023-04-24T02:58:07;10.20;99.90
7129;DHT22;3606;52.930;8.644;2023-04-24T03:00:33;10.20;99.90
7129;DHT22;3606;52.930;8.644;2023-04-24T03:02:59;10.20;99.90
7129;DHT22;3606;52.930;8.644;2023-04-24T03:05:25;10.20;99.90
7129;DHT22;3606;52.930;8.644;2023-04-24T03:07:50;10.30;99.90
7129;DHT22;3606;52.930;8.644;2023-04-24T03:10:18;10.40;99.90
7129;DHT22;3606;52.930;8.644;2023-04-24T03:12:43;10.40;99.90
7129;DHT22;3606;52.930;8.644;2023-04-24T03:15:09;10.50;99.90
7129;DHT22;3606;52.930;8.644;2023-04-24T03:17:35;10.50;99.90
7129;DHT22;3606;52.930;8.644;2023-04-24T03:20:01;10.50;99.90
7129;DHT22;3606;52.930;8.644;2023-04-24T03:22:26;10.50;99.90
7129;DHT22;3606;52.930;8.644;2023-04-24T03:24:52;10.50;99.90
7129;DHT22;3606;52.930;8.644;2023-04-24T03:27:18;10.50;99.90
7129;DHT22;3606;52.930;8.644;2023-04-24T03:29:43;10.50;99.90
7129;DHT22;3606;52.930;8.644;2023-04-24T03:32:09;10.50;99.90
7129;DHT22;3606;52.930;8.644;2023-04-24T03:34:34;10.50;99.90
7129;DHT22;3606;52.930;8.644;2023-04-24T03:37:00;10.60;99.90
7129;DHT22;3606;52.930;8.644;2023-04-24T03:39:25;10.60;99.90
7129;DHT22;3606;52.930;8.644;2023-04-24T03:41:51;10.50;99.90
7129;DHT22;3606;52.930;8.644;2023-04-24T03:44:16;10.50;99.90
7129;DHT22;3606;52.930;8.644;2023-04-24T03:46:42;10.60;99.90
7129;DHT22;3606;52.930;8.644;2023-04-24T03:49:08;10.60;99.90
7129;DHT22;3606;52.930;8.644;2023-04-24T03:51:33;10.50;99.90
7129;DHT22;3606;52.930;8.644;2023-04-24T03:53:59;10.60;99.90
7129;DHT22;3606;52.930;8.644;2023-04-24T03:56:24;10.60;99.90
7129;DHT22;3606;52.930;8.644;2023-04-24T03:58:50;10.60;99.90
7129;DHT22;3606;52.930;8.644;2023-04-24T04:01:15;10.60;99.90
7129;DHT22;3606;52.930;8.644;2023-04-24T04:03:41;10.60;99.90
7129;DHT22;3606;52.930;8.644;2023-04-24T04:06:07;10.60;99.90
7129;DHT22;3606;52.930;8.644;2023-04-24T04:08:32;10.60;99.90
7129;DHT22;3606;52.930;8.644;2023-04-24T04:10:58;10.60;99.90
7129;DHT22;3606;52.930;8.644;2023-04-24T04:13:23;10.60;99.90
7129;DHT22;3606;52.930;8.644;2023-04-24T04:15:49;10.60;99.90
7129;DHT22;3606;52.930;8.644;2023-04-24T04:18:15;10.60;99.80
7129;DHT22;3606;52.930;8.644;2023-04-24T04:20:40;10.60;90.50
7129;DHT22;3606;52.930;8.644;2023-04-24T04:23:06;10.60;99.90
7129;DHT22;3606;52.930;8.644;2023-04-24T04:25:32;10.60;95.60
7129;DHT22;3606;52.930;8.644;2023-04-24T04:27:57;10.60;82.90
7129;DHT22;3606;52.930;8.644;2023-04-24T04:30:24;10.70;89.30
7129;DHT22;3606;52.930;8.644;2023-04-24T04:32:51;10.60;42.60
7129;DHT22;3606;52.930;8.644;2023-04-24T04:35:16;10.70;81.10
7129;DHT22;3606;52.930;8.644;2023-04-24T04:37:42;10.70;94.10
7129;DHT22;3606;52.930;8.644;2023-04-24T04:40:08;10.60;62.70
7129;DHT22;3606;52.930;8.644;2023-04-24T04:42:37;10.70;73.80
7129;DHT22;3606;52.930;8.644;2023-04-24T04:45:06;10.70;67.60
7129;DHT22;3606;52.930;8.644;2023-04-24T04:47:34;10.70;46.10
7129;DHT22;3606;52.930;8.644;2023-04-24T04:50:00;10.70;43.60
7129;DHT22;3606;52.930;8.644;2023-04-24T04:52:26;10.70;70.80
7129;DHT22;3606;52.930;8.644;2023-04-24T04:54:52;10.70;58.40
7129;DHT22;3606;52.930;8.644;2023-04-24T04:57:18;10.80;58.00
7129;DHT22;3606;52.930;8.644;2023-04-24T04:59:43;10.80;69.90
7129;DHT22;3606;52.930;8.644;2023-04-24T05:02:10;10.80;93.50
7129;DHT22;3606;52.930;8.644;2023-04-24T05:04:35;10.80;65.30
7129;DHT22;3606;52.930;8.644;2023-04-24T05:07:01;10.80;90.00
7129;DHT22;3606;52.930;8.644;2023-04-24T05:09:26;10.90;92.50
7129;DHT22;3606;52.930;8.644;2023-04-24T05:11:54;10.90;77.10
7129;DHT22;3606;52.930;8.644;2023-04-24T05:14:19;10.90;95.50
7129;DHT22;3606;52.930;8.644;2023-04-24T05:16:45;10.90;57.80
7129;DHT22;3606;52.930;8.644;2023-04-24T05:19:11;10.90;84.30
7129;DHT22;3606;52.930;8.644;2023-04-24T05:21:39;10.90;84.10
7129;DHT22;3606;52.930;8.644;2023-04-24T05:24:05;10.90;95.40
7129;DHT22;3606;52.930;8.644;2023-04-24T05:26:31;10.90;99.90
7129;DHT22;3606;52.930;8.644;2023-04-24T05:28:57;10.90;95.80
7129;DHT22;3606;52.930;8.644;2023-04-24T05:31:22;10.90;99.90
7129;DHT22;3606;52.930;8.644;2023-04-24T05:33:48;10.90;72.20
7129;DHT22;3606;52.930;8.644;2023-04-24T05:36:14;10.90;70.90
7129;DHT22;3606;52.930;8.644;2023-04-24T05:38:40;10.90;97.30
7129;DHT22;3606;52.930;8.644;2023-04-24T05:41:05;10.80;97.20
7129;DHT22;3606;52.930;8.644;2023-04-24T05:43:31;10.80;92.40
7129;DHT22;3606;52.930;8.644;2023-04-24T05:45:57;10.80;90.80
7129;DHT22;3606;52.930;8.644;2023-04-24T05:48:22;10.80;99.90
7129;DHT22;3606;52.930;8.644;2023-04-24T05:50:48;10.90;99.90
7129;DHT22;3606;52.930;8.644;2023-04-24T05:53:14;11.00;95.30
7129;DHT22;3606;52.930;8.644;2023-04-24T05:55:39;11.20;70.00
7129;DHT22;3606;52.930;8.644;2023-04-24T05:58:05;11.20;58.60
7129;DHT22;3606;52.930;8.644;2023-04-24T06:00:32;11.30;64.40
7129;DHT22;3606;52.930;8.644;2023-04-24T06:03:00;11.20;28.00
7129;DHT22;3606;52.930;8.644;2023-04-24T06:05:25;11.10;43.10
7129;DHT22;3606;52.930;8.644;2023-04-24T06:07:51;11.10;46.50
7129;DHT22;3606;52.930;8.644;2023-04-24T06:10:17;11.10;32.60
7129;DHT22;3606;52.930;8.644;2023-04-24T06:12:43;11.10;10.90
7129;DHT22;3606;52.930;8.644;2023-04-24T06:15:09;11.20;38.30
7129;DHT22;3606;52.930;8.644;2023-04-24T06:17:34;11.20;42.90
7129;DHT22;3606;52.930;8.644;2023-04-24T06:20:00;11.50;59.30
7129;DHT22;3606;52.930;8.644;2023-04-24T06:22:26;11.70;26.60
7129;DHT22;3606;52.930;8.644;2023-04-24T06:24:52;11.80;1.00
7129;DHT22;3606;52.930;8.644;2023-04-24T06:27:17;11.80;1.00
7129;DHT22;3606;52.930;8.644;2023-04-24T06:29:43;11.70;1.00
7129;DHT22;3606;52.930;8.644;2023-04-24T06:32:08;11.60;1.00
7129;DHT22;3606;52.930;8.644;2023-04-24T06:34:34;11.70;1.00
7129;DHT22;3606;52.930;8.644;2023-04-24T06:37:00;11.70;12.50
7129;DHT22;3606;52.930;8.644;2023-04-24T06:39:26;11.60;3.00
7129;DHT22;3606;52.930;8.644;2023-04-24T06:41:52;11.50;17.30
7129;DHT22;3606;52.930;8.644;2023-04-24T06:44:17;11.50;26.60
7129;DHT22;3606;52.930;8.644;2023-04-24T06:46:43;11.60;17.50
7129;DHT22;3606;52.930;8.644;2023-04-24T06:49:09;11.50;28.10
7129;DHT22;3606;52.930;8.644;2023-04-24T06:51:34;11.40;1.00
7129;DHT22;3606;52.930;8.644;2023-04-24T06:54:00;11.60;21.60
7129;DHT22;3606;52.930;8.644;2023-04-24T06:56:26;11.60;1.00
7129;DHT22;3606;52.930;8.644;2023-04-24T06:58:51;11.70;1.00
7129;DHT22;3606;52.930;8.644;2023-04-24T07:01:17;11.60;1.00
7129;DHT22;3606;52.930;8.644;2023-04-24T07:03:43;11.70;1.00
7129;DHT22;3606;52.930;8.644;2023-04-24T07:06:09;11.80;23.80
7129;DHT22;3606;52.930;8.644;2023-04-24T07:08:36;12.10;1.00
7129;DHT22;3606;52.930;8.644;2023-04-24T07:11:02;12.10;1.00
7129;DHT22;3606;52.930;8.644;2023-04-24T07:13:27;12.10;1.00
7129;DHT22;3606;52.930;8.644;2023-04-24T07:15:54;11.90;1.00
7129;DHT22;3606;52.930;8.644;2023-04-24T07:18:20;11.80;1.00
7129;DHT22;3606;52.930;8.644;2023-04-24T07:20:46;11.70;1.00
7129;DHT22;3606;52.930;8.644;2023-04-24T07:23:12;11.60;1.00
7129;DHT22;3606;52.930;8.644;2023-04-24T07:25:37;11.60;1.00
7129;DHT22;3606;52.930;8.644;2023-04-24T07:28:04;11.60;1.00
7129;DHT22;3606;52.930;8.644;2023-04-24T07:30:31;11.60;1.00
7129;DHT22;3606;52.930;8.644;2023-04-24T07:32:58;11.70;1.00
7129;DHT22;3606;52.930;8.644;2023-04-24T07:35:24;11.80;1.00
7129;DHT22;3606;52.930;8.644;2023-04-24T07:37:54;11.70;1.00
7129;DHT22;3606;52.930;8.644;2023-04-24T07:40:20;11.80;1.00
7129;DHT22;3606;52.930;8.644;2023-04-24T07:42:45;11.80;1.00
7129;DHT22;3606;52.930;8.644;2023-04-24T07:45:13;11.70;1.00
7129;DHT22;3606;52.930;8.644;2023-04-24T07:47:41;11.70;1.00
7129;DHT22;3606;52.930;8.644;2023-04-24T07:50:09;11.80;1.00
7129;DHT22;3606;52.930;8.644;2023-04-24T07:52:35;11.80;1.00
7129;DHT22;3606;52.930;8.644;2023-04-24T07:55:01;11.90;1.00
7129;DHT22;3606;52.930;8.644;2023-04-24T07:57:28;11.90;1.00
7129;DHT22;3606;52.930;8.644;2023-04-24T07:59:54;11.90;1.00
7129;DHT22;3606;52.930;8.644;2023-04-24T08:02:20;12.00;1.00
7129;DHT22;3606;52.930;8.644;2023-04-24T08:04:54;12.10;1.00
7129;DHT22;3606;52.930;8.644;2023-04-24T08:07:19;12.30;1.00
7129;DHT22;3606;52.930;8.644;2023-04-24T08:09:45;12.30;1.00
7129;DHT22;3606;52.930;8.644;2023-04-24T08:12:11;12.10;1.00
7129;DHT22;3606;52.930;8.644;2023-04-24T08:14:36;12.10;1.00
7129;DHT22;3606;52.930;8.644;2023-04-24T08:17:02;12.10;1.00
7129;DHT22;3606;52.930;8.644;2023-04-24T08:19:28;12.30;1.00
7129;DHT22;3606;52.930;8.644;2023-04-24T08:21:54;12.50;1.00
7129;DHT22;3606;52.930;8.644;2023-04-24T08:24:19;12.80;1.00
7129;DHT22;3606;52.930;8.644;2023-04-24T08:26:45;13.00;1.00
7129;DHT22;3606;52.930;8.644;2023-04-24T08:29:11;13.20;1.00
7129;DHT22;3606;52.930;8.644;2023-04-24T08:31:36;13.50;1.00
7129;DHT22;3606;52.930;8.644;2023-04-24T08:34:02;13.60;1.00
7129;DHT22;3606;52.930;8.644;2023-04-24T08:36:28;13.50;1.00
7129;DHT22;3606;52.930;8.644;2023-04-24T08:38:53;13.50;1.00
7129;DHT22;3606;52.930;8.644;2023-04-24T08:41:19;13.60;1.00
7129;DHT22;3606;52.930;8.644;2023-04-24T08:43:47;13.50;1.00
7129;DHT22;3606;52.930;8.644;2023-04-24T08:46:15;13.70;1.00
7129;DHT22;3606;52.930;8.644;2023-04-24T08:48:40;13.60;1.00
7129;DHT22;3606;52.930;8.644;2023-04-24T08:51:09;13.50;1.00
7129;DHT22;3606;52.930;8.644;2023-04-24T08:53:35;13.10;1.00
7129;DHT22;3606;52.930;8.644;2023-04-24T08:56:02;13.00;1.00
7129;DHT22;3606;52.930;8.644;2023-04-24T08:58:28;12.80;1.00
7129;DHT22;3606;52.930;8.644;2023-04-24T09:00:55;12.50;1.00
7129;DHT22;3606;52.930;8.644;2023-04-24T09:03:21;12.50;1.00
7129;DHT22;3606;52.930;8.644;2023-04-24T09:05:48;13.30;1.00
7129;DHT22;3606;52.930;8.644;2023-04-24T09:08:18;14.00;99.90
7129;DHT22;3606;52.930;8.644;2023-04-24T09:10:44;13.70;1.00
7129;DHT22;3606;52.930;8.644;2023-04-24T09:13:10;13.10;1.00
7129;DHT22;3606;52.930;8.644;2023-04-24T09:15:37;12.70;1.00
7129;DHT22;3606;52.930;8.644;2023-04-24T09:18:03;12.40;1.00
7129;DHT22;3606;52.930;8.644;2023-04-24T09:20:29;12.10;1.00
7129;DHT22;3606;52.930;8.644;2023-04-24T09:22:57;12.00;1.00
7129;DHT22;3606;52.930;8.644;2023-04-24T09:25:31;11.80;1.00
7129;DHT22;3606;52.930;8.644;2023-04-24T09:28:01;11.70;1.00
7129;DHT22;3606;52.930;8.644;2023-04-24T09:30:28;11.60;1.00
7129;DHT22;3606;52.930;8.644;2023-04-24T09:33:13;11.60;1.00
7129;DHT22;3606;52.930;8.644;2023-04-24T09:35:49;11.80;1.00
7129;DHT22;3606;52.930;8.644;2023-04-24T09:38:15;11.90;1.00
7129;DHT22;3606;52.930;8.644;2023-04-24T09:40:40;12.10;1.00
7129;DHT22;3606;52.930;8.644;2023-04-24T09:43:10;12.10;1.00
7129;DHT22;3606;52.930;8.644;2023-04-24T09:45:39;12.30;1.00
7129;DHT22;3606;52.930;8.644;2023-04-24T09:48:09;12.40;1.00
7129;DHT22;3606;52.930;8.644;2023-04-24T09:50:35;12.30;1.00
7129;DHT22;3606;52.930;8.644;2023-04-24T09:53:05;12.10;1.00
7129;DHT22;3606;52.930;8.644;2023-04-24T09:55:39;12.10;1.00
7129;DHT22;3606;52.930;8.644;2023-04-24T09:58:08;11.90;1.00
7129;DHT22;3606;52.930;8.644;2023-04-24T10:00:33;11.70;1.00
7129;DHT22;3606;52.930;8.644;2023-04-24T10:03:01;11.60;1.00
7129;DHT22;3606;52.930;8.644;2023-04-24T10:05:32;11.50;1.00
7129;DHT22;3606;52.930;8.644;2023-04-24T10:08:07;11.30;1.00
7129;DHT22;3606;52.930;8.644;2023-04-24T10:10:35;11.10;1.00
7129;DHT22;3606;52.930;8.644;2023-04-24T10:13:03;11.10;1.00
7129;DHT22;3606;52.930;8.644;2023-04-24T10:15:29;11.20;1.00
7129;DHT22;3606;52.930;8.644;2023-04-24T10:17:58;11.40;1.00
7129;DHT22;3606;52.930;8.644;2023-04-24T10:20:27;11.40;1.00
7129;DHT22;3606;52.930;8.644;2023-04-24T10:22:55;11.50;1.00
7129;DHT22;3606;52.930;8.644;2023-04-24T10:25:23;11.70;1.00
7129;DHT22;3606;52.930;8.644;2023-04-24T10:27:50;11.80;1.00
7129;DHT22;3606;52.930;8.644;2023-04-24T10:30:17;11.90;1.00
7129;DHT22;3606;52.930;8.644;2023-04-24T10:32:43;11.90;1.00
7129;DHT22;3606;52.930;8.644;2023-04-24T10:35:10;11.80;1.00
7129;DHT22;3606;52.930;8.644;2023-04-24T10:37:40;11.90;1.00
7129;DHT22;3606;52.930;8.644;2023-04-24T10:40:08;12.00;1.00
7129;DHT22;3606;52.930;8.644;2023-04-24T10:42:34;12.20;1.00
7129;DHT22;3606;52.930;8.644;2023-04-24T10:45:05;12.30;1.00
7129;DHT22;3606;52.930;8.644;2023-04-24T10:47:40;12.60;1.00
7129;DHT22;3606;52.930;8.644;2023-04-24T10:50:15;13.00;1.00
7129;DHT22;3606;52.930;8.644;2023-04-24T10:52:48;13.20;1.00
7129;DHT22;3606;52.930;8.644;2023-04-24T10:55:16;14.00;99.90
7129;DHT22;3606;52.930;8.644;2023-04-24T10:58:03;14.60;99.90
7129;DHT22;3606;52.930;8.644;2023-04-24T11:00:29;14.50;99.90
7129;DHT22;3606;52.930;8.644;2023-04-24T11:02:55;13.80;99.90
7129;DHT22;3606;52.930;8.644;2023-04-24T11:05:22;13.10;99.90
7129;DHT22;3606;52.930;8.644;2023-04-24T11:08:13;12.40;1.00
7129;DHT22;3606;52.930;8.644;2023-04-24T11:10:43;12.10;1.00
7129;DHT22;3606;52.930;8.644;2023-04-24T11:13:09;11.90;1.00
7129;DHT22;3606;52.930;8.644;2023-04-24T11:15:35;11.80;1.00
7129;DHT22;3606;52.930;8.644;2023-04-24T11:18:00;11.80;1.00
7129;DHT22;3606;52.930;8.644;2023-04-24T11:20:26;11.90;1.00
7129;DHT22;3606;52.930;8.644;2023-04-24T11:22:53;11.80;1.00
7129;DHT22;3606;52.930;8.644;2023-04-24T11:25:21;11.80;1.00
7129;DHT22;3606;52.930;8.644;2023-04-24T11:27:49;11.90;1.00
7129;DHT22;3606;52.930;8.644;2023-04-24T11:30:20;12.10;1.00
7129;DHT22;3606;52.930;8.644;2023-04-24T11:32:51;12.20;1.00
7129;DHT22;3606;52.930;8.644;2023-04-24T11:35:23;12.00;1.00
7129;DHT22;3606;52.930;8.644;2023-04-24T11:37:53;11.50;1.00
7129;DHT22;3606;52.930;8.644;2023-04-24T11:40:20;11.10;48.30
7129;DHT22;3606;52.930;8.644;2023-04-24T11:42:49;10.80;99.90
7129;DHT22;3606;52.930;8.644;2023-04-24T11:45:25;10.70;99.90
7129;DHT22;3606;52.930;8.644;2023-04-24T11:47:51;10.60;99.90
7129;DHT22;3606;52.930;8.644;2023-04-24T11:50:22;10.50;99.90
7129;DHT22;3606;52.930;8.644;2023-04-24T11:52:49;10.50;99.90
7129;DHT22;3606;52.930;8.644;2023-04-24T11:57:45;10.40;99.90
7129;DHT22;3606;52.930;8.644;2023-04-24T12:00:20;10.30;99.90
7129;DHT22;3606;52.930;8.644;2023-04-24T12:02:46;10.30;99.90
7129;DHT22;3606;52.930;8.644;2023-04-24T12:05:26;10.20;99.90
7129;DHT22;3606;52.930;8.644;2023-04-24T12:07:52;10.10;99.90
7129;DHT22;3606;52.930;8.644;2023-04-24T12:10:26;9.90;99.90
7129;DHT22;3606;52.930;8.644;2023-04-24T12:12:53;9.80;99.90
7129;DHT22;3606;52.930;8.644;2023-04-24T12:15:20;9.80;99.90
7129;DHT22;3606;52.930;8.644;2023-04-24T12:17:46;9.80;99.90
7129;DHT22;3606;52.930;8.644;2023-04-24T12:20:13;9.80;99.90
7129;DHT22;3606;52.930;8.644;2023-04-24T12:25:12;9.90;99.90
7129;DHT22;3606;52.930;8.644;2023-04-24T12:27:38;10.00;99.90
7129;DHT22;3606;52.930;8.644;2023-04-24T12:30:05;9.90;99.90
7129;DHT22;3606;52.930;8.644;2023-04-24T12:32:31;9.80;99.90
7129;DHT22;3606;52.930;8.644;2023-04-24T12:34:57;9.80;99.90
7129;DHT22;3606;52.930;8.644;2023-04-24T12:37:24;9.80;99.90
7129;DHT22;3606;52.930;8.644;2023-04-24T12:40:00;9.70;99.90
7129;DHT22;3606;52.930;8.644;2023-04-24T12:42:28;9.50;99.90
7129;DHT22;3606;52.930;8.644;2023-04-24T12:45:05;9.40;99.90
7129;DHT22;3606;52.930;8.644;2023-04-24T12:47:32;9.30;99.90
7129;DHT22;3606;52.930;8.644;2023-04-24T12:49:59;9.10;99.90
7129;DHT22;3606;52.930;8.644;2023-04-24T12:52:26;8.90;99.90
7129;DHT22;3606;52.930;8.644;2023-04-24T12:54:56;8.80;99.90
7129;DHT22;3606;52.930;8.644;2023-04-24T12:57:23;8.70;99.90
7129;DHT22;3606;52.930;8.644;2023-04-24T12:59:49;8.70;99.90
7129;DHT22;3606;52.930;8.644;2023-04-24T13:02:16;8.70;99.90
7129;DHT22;3606;52.930;8.644;2023-04-24T13:04:46;8.70;99.90
7129;DHT22;3606;52.930;8.644;2023-04-24T13:07:12;8.70;99.90
7129;DHT22;3606;52.930;8.644;2023-04-24T13:09:39;8.70;99.90
7129;DHT22;3606;52.930;8.644;2023-04-24T13:12:04;8.60;99.90
7129;DHT22;3606;52.930;8.644;2023-04-24T13:14:31;8.60;99.90
7129;DHT22;3606;52.930;8.644;2023-04-24T13:16:57;8.50;99.90
7129;DHT22;3606;52.930;8.644;2023-04-24T13:19:24;8.50;99.90
7129;DHT22;3606;52.930;8.644;2023-04-24T13:21:51;8.40;99.90
7129;DHT22;3606;52.930;8.644;2023-04-24T13:24:16;8.40;99.90
7129;DHT22;3606;52.930;8.644;2023-04-24T13:26:42;8.30;99.90
7129;DHT22;3606;52.930;8.644;2023-04-24T13:29:08;8.30;99.90
7129;DHT22;3606;52.930;8.644;2023-04-24T13:31:34;8.30;99.90
7129;DHT22;3606;52.930;8.644;2023-04-24T13:34:00;8.30;99.90
7129;DHT22;3606;52.930;8.644;2023-04-24T13:36:26;8.30;99.90
7129;DHT22;3606;52.930;8.644;2023-04-24T13:38:52;8.30;99.90
7129;DHT22;3606;52.930;8.644;2023-04-24T13:41:17;8.20;99.90
7129;DHT22;3606;52.930;8.644;2023-04-24T13:43:43;8.10;99.90
7129;DHT22;3606;52.930;8.644;2023-04-24T13:46:08;8.10;99.90
7129;DHT22;3606;52.930;8.644;2023-04-24T13:48:34;8.10;99.90
7129;DHT22;3606;52.930;8.644;2023-04-24T13:51:00;8.10;99.90
7129;DHT22;3606;52.930;8.644;2023-04-24T13:53:26;8.10;99.90
7129;DHT22;3606;52.930;8.644;2023-04-24T13:55:51;8.10;99.90
7129;DHT22;3606;52.930;8.644;2023-04-24T13:58:17;8.00;99.90
7129;DHT22;3606;52.930;8.644;2023-04-24T14:00:42;7.90;99.90
7129;DHT22;3606;52.930;8.644;2023-04-24T14:03:08;7.90;99.90
7129;DHT22;3606;52.930;8.644;2023-04-24T14:05:34;7.80;99.90
7129;DHT22;3606;52.930;8.644;2023-04-24T14:07:59;7.90;99.90
7129;DHT22;3606;52.930;8.644;2023-04-24T14:10:25;7.90;99.90
7129;DHT22;3606;52.930;8.644;2023-04-24T14:12:53;8.00;99.90
7129;DHT22;3606;52.930;8.644;2023-04-24T14:15:18;8.00;99.90
7129;DHT22;3606;52.930;8.644;2023-04-24T14:17:44;7.90;99.90
7129;DHT22;3606;52.930;8.644;2023-04-24T14:20:12;7.90;99.90
7129;DHT22;3606;52.930;8.644;2023-04-24T14:22:37;7.90;99.90
7129;DHT22;3606;52.930;8.644;2023-04-24T14:25:04;7.90;99.90
7129;DHT22;3606;52.930;8.644;2023-04-24T14:27:31;7.90;99.90
7129;DHT22;3606;52.930;8.644;2023-04-24T14:29:57;7.90;99.90
7129;DHT22;3606;52.930;8.644;2023-04-24T14:32:23;7.90;99.90
7129;DHT22;3606;52.930;8.644;2023-04-24T14:34:48;8.00;99.90
7129;DHT22;3606;52.930;8.644;2023-04-24T14:37:14;8.10;99.90
7129;DHT22;3606;52.930;8.644;2023-04-24T14:39:40;8.10;99.90
7129;DHT22;3606;52.930;8.644;2023-04-24T14:42:06;8.10;99.90
7129;DHT22;3606;52.930;8.644;2023-04-24T14:44:31;8.20;99.90
7129;DHT22;3606;52.930;8.644;2023-04-24T14:46:58;8.20;99.90
7129;DHT22;3606;52.930;8.644;2023-04-24T14:49:24;8.20;99.90
7129;DHT22;3606;52.930;8.644;2023-04-24T14:51:50;8.20;99.90
7129;DHT22;3606;52.930;8.644;2023-04-24T14:54:15;8.30;99.90
7129;DHT22;3606;52.930;8.644;2023-04-24T14:56:41;8.30;99.90
7129;DHT22;3606;52.930;8.644;2023-04-24T14:59:08;8.40;99.90
7129;DHT22;3606;52.930;8.644;2023-04-24T15:01:33;8.40;99.90
7129;DHT22;3606;52.930;8.644;2023-04-24T15:03:59;8.40;99.90
7129;DHT22;3606;52.930;8.644;2023-04-24T15:06:25;8.40;99.90
7129;DHT22;3606;52.930;8.644;2023-04-24T15:08:50;8.50;99.90
7129;DHT22;3606;52.930;8.644;2023-04-24T15:11:16;8.40;99.90
7129;DHT22;3606;52.930;8.644;2023-04-24T15:13:42;8.40;99.90
7129;DHT22;3606;52.930;8.644;2023-04-24T15:16:07;8.30;99.90
7129;DHT22;3606;52.930;8.644;2023-04-24T15:18:33;8.30;99.90
7129;DHT22;3606;52.930;8.644;2023-04-24T15:20:58;8.40;99.90
7129;DHT22;3606;52.930;8.644;2023-04-24T15:23:24;8.60;99.90
7129;DHT22;3606;52.930;8.644;2023-04-24T15:25:50;8.70;99.90
7129;DHT22;3606;52.930;8.644;2023-04-24T15:28:16;8.70;99.90
7129;DHT22;3606;52.930;8.644;2023-04-24T15:30:43;8.70;99.90
7129;DHT22;3606;52.930;8.644;2023-04-24T15:33:08;8.70;99.90
7129;DHT22;3606;52.930;8.644;2023-04-24T15:35:34;8.60;99.90
7129;DHT22;3606;52.930;8.644;2023-04-24T15:38:01;8.60;99.90
7129;DHT22;3606;52.930;8.644;2023-04-24T15:40:27;8.50;99.90
7129;DHT22;3606;52.930;8.644;2023-04-24T15:42:53;8.40;99.90
7129;DHT22;3606;52.930;8.644;2023-04-24T15:45:19;8.30;99.90
7129;DHT22;3606;52.930;8.644;2023-04-24T15:47:44;8.30;99.90
7129;DHT22;3606;52.930;8.644;2023-04-24T15:50:12;8.20;99.90
7129;DHT22;3606;52.930;8.644;2023-04-24T15:52:37;8.10;99.90
7129;DHT22;3606;52.930;8.644;2023-04-24T15:55:04;8.00;99.90
7129;DHT22;3606;52.930;8.644;2023-04-24T15:57:30;8.00;99.90
7129;DHT22;3606;52.930;8.644;2023-04-24T15:59:56;8.00;99.90
7129;DHT22;3606;52.930;8.644;2023-04-24T16:02:22;8.10;99.90
7129;DHT22;3606;52.930;8.644;2023-04-24T16:04:48;8.10;99.90
7129;DHT22;3606;52.930;8.644;2023-04-24T16:07:15;8.20;99.90
7129;DHT22;3606;52.930;8.644;2023-04-24T16:09:42;8.20;99.90